sensor_id;sensor_type;location;lat;lon;timestamp;P1;durP1;ratioP1;P2;durP2;ratioP2
9520;SDS011;4798;41.574;23.734;2024-02-04T00:01:34;2.90;;;0.67;;
9520;SDS011;4798;41.574;23.734;2024-02-04T00:04:04;2.33;;;1.67;;
9520;SDS011;4798;41.574;23.734;2024-02-04T00:06:33;0.87;;;0.87;;
9520;SDS011;4798;41.574;23.734;2024-02-04T00:09:02;2.13;;;1.87;;
9520;SDS011;4798;41.574;23.734;2024-02-04T00:11:32;3.00;;;0.90;;
9520;SDS011;4798;41.574;23.734;2024-02-04T00:14:01;1.83;;;0.87;;
9520;SDS011;4798;41.574;23.734;2024-02-04T00:16:30;3.53;;;0.77;;
9520;SDS011;4798;41.574;23.734;2024-02-04T00:18:58;3.50;;;2.17;;
9520;SDS011;4798;41.574;23.734;2024-02-04T00:21:29;1.53;;;1.43;;
9520;SDS011;4798;41.574;23.734;2024-02-04T00:23:57;2.13;;;2.03;;
9520;SDS011;4798;41.574;23.734;2024-02-04T00:26:26;0.63;;;0.57;;
9520;SDS011;4798;41.574;23.734;2024-02-04T00:28:55;2.60;;;1.03;;
9520;SDS011;4798;41.574;23.734;2024-02-04T00:31:23;2.37;;;2.17;;
9520;SDS011;4798;41.574;23.734;2024-02-04T00:33:52;2.53;;;1.00;;
9520;SDS011;4798;41.574;23.734;2024-02-04T00:36:21;0.70;;;0.70;;
9520;SDS011;4798;41.574;23.734;2024-02-04T00:38:51;1.33;;;1.23;;
9520;SDS011;4798;41.574;23.734;2024-02-04T00:41:19;6.90;;;1.40;;
9520;SDS011;4798;41.574;23.734;2024-02-04T00:43:48;5.53;;;2.20;;
9520;SDS011;4798;41.574;23.734;2024-02-04T00:46:17;2.10;;;1.70;;
9520;SDS011;4798;41.574;23.734;2024-02-04T00:48:46;1.60;;;1.50;;
9520;SDS011;4798;41.574;23.734;2024-02-04T00:51:15;2.77;;;1.70;;
9520;SDS011;4798;41.574;23.734;2024-02-04T00:53:44;10.50;;;1.70;;
9520;SDS011;4798;41.574;23.734;2024-02-04T00:56:14;2.93;;;2.03;;
9520;SDS011;4798;41.574;23.734;2024-02-04T00:58:43;2.07;;;1.97;;
9520;SDS011;4798;41.574;23.734;2024-02-04T01:01:12;9.23;;;1.40;;
9520;SDS011;4798;41.574;23.734;2024-02-04T01:03:41;3.03;;;1.37;;
9520;SDS011;4798;41.574;23.734;2024-02-04T01:06:10;6.43;;;1.63;;
9520;SDS011;4798;41.574;23.734;2024-02-04T01:08:38;3.83;;;1.20;;
9520;SDS011;4798;41.574;23.734;2024-02-04T01:11:07;3.07;;;2.50;;
9520;SDS011;4798;41.574;23.734;2024-02-04T01:13:37;1.80;;;1.70;;
9520;SDS011;4798;41.574;23.734;2024-02-04T01:16:06;1.37;;;1.27;;
9520;SDS011;4798;41.574;23.734;2024-02-04T01:18:34;4.77;;;1.77;;
9520;SDS011;4798;41.574;23.734;2024-02-04T01:21:03;1.93;;;1.73;;
9520;SDS011;4798;41.574;23.734;2024-02-04T01:23:33;2.87;;;2.40;;
9520;SDS011;4798;41.574;23.734;2024-02-04T01:26:01;4.50;;;2.50;;
9520;SDS011;4798;41.574;23.734;2024-02-04T01:28:30;2.23;;;2.13;;
9520;SDS011;4798;41.574;23.734;2024-02-04T01:31:00;1.90;;;1.07;;
9520;SDS011;4798;41.574;23.734;2024-02-04T01:33:29;2.03;;;1.60;;
9520;SDS011;4798;41.574;23.734;2024-02-04T01:35:57;1.87;;;1.77;;
9520;SDS011;4798;41.574;23.734;2024-02-04T01:38:26;5.50;;;1.87;;
9520;SDS011;4798;41.574;23.734;2024-02-04T01:40:55;4.20;;;1.60;;
9520;SDS011;4798;41.574;23.734;2024-02-04T01:43:24;2.00;;;1.13;;
9520;SDS011;4798;41.574;23.734;2024-02-04T01:45:53;2.00;;;1.53;;
9520;SDS011;4798;41.574;23.734;2024-02-04T01:48:23;2.00;;;1.90;;
9520;SDS011;4798;41.574;23.734;2024-02-04T01:50:53;4.83;;;1.67;;
9520;SDS011;4798;41.574;23.734;2024-02-04T01:53:26;2.90;;;2.73;;
9520;SDS011;4798;41.574;23.734;2024-02-04T01:55:56;1.40;;;1.30;;
9520;SDS011;4798;41.574;23.734;2024-02-04T01:58:25;1.17;;;1.17;;
9520;SDS011;4798;41.574;23.734;2024-02-04T02:00:54;6.13;;;3.17;;
9520;SDS011;4798;41.574;23.734;2024-02-04T02:03:24;1.27;;;1.17;;
9520;SDS011;4798;41.574;23.734;2024-02-04T02:05:54;2.30;;;2.17;;
9520;SDS011;4798;41.574;23.734;2024-02-04T02:08:23;4.30;;;3.20;;
9520;SDS011;4798;41.574;23.734;2024-02-04T02:10:56;1.23;;;1.13;;
9520;SDS011;4798;41.574;23.734;2024-02-04T02:13:33;4.53;;;1.97;;
9520;SDS011;4798;41.574;23.734;2024-02-04T02:16:05;1.27;;;1.00;;
9520;SDS011;4798;41.574;23.734;2024-02-04T02:18:41;5.97;;;1.10;;
9520;SDS011;4798;41.574;23.734;2024-02-04T02:21:16;2.00;;;1.90;;
9520;SDS011;4798;41.574;23.734;2024-02-04T02:23:59;1.07;;;0.80;;
9520;SDS011;4798;41.574;23.734;2024-02-04T02:26:33;2.10;;;1.03;;
9520;SDS011;4798;41.574;23.734;2024-02-04T02:29:05;6.43;;;1.30;;
9520;SDS011;4798;41.574;23.734;2024-02-04T02:31:35;1.67;;;1.00;;
9520;SDS011;4798;41.574;23.734;2024-02-04T02:34:14;13.97;;;1.30;;
9520;SDS011;4798;41.574;23.734;2024-02-04T02:36:49;3.50;;;3.20;;
9520;SDS011;4798;41.574;23.734;2024-02-04T02:39:23;4.77;;;2.60;;
9520;SDS011;4798;41.574;23.734;2024-02-04T02:41:55;1.30;;;1.27;;
9520;SDS011;4798;41.574;23.734;2024-02-04T02:44:27;0.93;;;0.83;;
9520;SDS011;4798;41.574;23.734;2024-02-04T02:46:57;3.53;;;1.10;;
9520;SDS011;4798;41.574;23.734;2024-02-04T02:49:28;14.40;;;1.73;;
9520;SDS011;4798;41.574;23.734;2024-02-04T02:51:57;1.63;;;0.77;;
9520;SDS011;4798;41.574;23.734;2024-02-04T02:54:26;1.13;;;1.03;;
9520;SDS011;4798;41.574;23.734;2024-02-04T02:56:56;2.13;;;1.10;;
9520;SDS011;4798;41.574;23.734;2024-02-04T02:59:25;1.47;;;1.37;;
9520;SDS011;4798;41.574;23.734;2024-02-04T03:01:53;1.07;;;0.87;;
9520;SDS011;4798;41.574;23.734;2024-02-04T03:04:22;2.77;;;2.57;;
9520;SDS011;4798;41.574;23.734;2024-02-04T03:06:51;13.13;;;1.10;;
9520;SDS011;4798;41.574;23.734;2024-02-04T03:09:20;1.80;;;1.47;;
9520;SDS011;4798;41.574;23.734;2024-02-04T03:11:48;1.83;;;1.73;;
9520;SDS011;4798;41.574;23.734;2024-02-04T03:14:19;2.10;;;1.17;;
9520;SDS011;4798;41.574;23.734;2024-02-04T03:16:48;1.17;;;1.07;;
9520;SDS011;4798;41.574;23.734;2024-02-04T03:19:20;4.03;;;1.77;;
9520;SDS011;4798;41.574;23.734;2024-02-04T03:21:49;1.23;;;1.13;;
9520;SDS011;4798;41.574;23.734;2024-02-04T03:24:18;5.27;;;1.23;;
9520;SDS011;4798;41.574;23.734;2024-02-04T03:26:46;5.43;;;1.20;;
9520;SDS011;4798;41.574;23.734;2024-02-04T03:29:15;7.00;;;0.80;;
9520;SDS011;4798;41.574;23.734;2024-02-04T03:31:45;8.73;;;1.87;;
9520;SDS011;4798;41.574;23.734;2024-02-04T03:34:14;1.87;;;1.23;;
9520;SDS011;4798;41.574;23.734;2024-02-04T03:36:42;2.07;;;1.67;;
9520;SDS011;4798;41.574;23.734;2024-02-04T03:39:11;5.57;;;2.87;;
9520;SDS011;4798;41.574;23.734;2024-02-04T03:41:40;3.77;;;3.57;;
9520;SDS011;4798;41.574;23.734;2024-02-04T03:44:08;1.70;;;1.60;;
9520;SDS011;4798;41.574;23.734;2024-02-04T03:46:37;3.67;;;1.57;;
9520;SDS011;4798;41.574;23.734;2024-02-04T03:49:08;2.70;;;2.50;;
9520;SDS011;4798;41.574;23.734;2024-02-04T03:51:37;1.50;;;1.40;;
9520;SDS011;4798;41.574;23.734;2024-02-04T03:54:06;1.80;;;1.70;;
9520;SDS011;4798;41.574;23.734;2024-02-04T03:56:35;8.60;;;2.40;;
9520;SDS011;4798;41.574;23.734;2024-02-04T03:59:03;4.20;;;1.50;;
9520;SDS011;4798;41.574;23.734;2024-02-04T04:01:33;3.40;;;3.10;;
9520;SDS011;4798;41.574;23.734;2024-02-04T04:04:02;1.17;;;0.93;;
9520;SDS011;4798;41.574;23.734;2024-02-04T04:06:32;2.37;;;1.43;;
9520;SDS011;4798;41.574;23.734;2024-02-04T04:09:01;5.80;;;2.50;;
9520;SDS011;4798;41.574;23.734;2024-02-04T04:11:29;1.80;;;1.70;;
9520;SDS011;4798;41.574;23.734;2024-02-04T04:13:58;4.53;;;2.07;;
9520;SDS011;4798;41.574;23.734;2024-02-04T04:16:27;2.00;;;1.90;;
9520;SDS011;4798;41.574;23.734;2024-02-04T04:18:55;1.60;;;1.37;;
9520;SDS011;4798;41.574;23.734;2024-02-04T04:21:25;2.93;;;2.73;;
9520;SDS011;4798;41.574;23.734;2024-02-04T04:23:55;1.77;;;1.67;;
9520;SDS011;4798;41.574;23.734;2024-02-04T04:26:24;2.47;;;2.27;;
9520;SDS011;4798;41.574;23.734;2024-02-04T04:28:52;1.17;;;1.00;;
9520;SDS011;4798;41.574;23.734;2024-02-04T04:31:21;1.50;;;1.40;;
9520;SDS011;4798;41.574;23.734;2024-02-04T04:33:49;1.37;;;1.33;;
9520;SDS011;4798;41.574;23.734;2024-02-04T04:36:19;2.50;;;2.30;;
9520;SDS011;4798;41.574;23.734;2024-02-04T04:38:48;10.17;;;5.27;;
9520;SDS011;4798;41.574;23.734;2024-02-04T04:41:18;2.90;;;2.80;;
9520;SDS011;4798;41.574;23.734;2024-02-04T04:43:47;0.97;;;0.97;;
9520;SDS011;4798;41.574;23.734;2024-02-04T04:46:15;1.27;;;1.17;;
9520;SDS011;4798;41.574;23.734;2024-02-04T04:48:44;3.93;;;2.97;;
9520;SDS011;4798;41.574;23.734;2024-02-04T04:51:13;1.40;;;1.30;;
9520;SDS011;4798;41.574;23.734;2024-02-04T04:53:41;2.60;;;2.50;;
9520;SDS011;4798;41.574;23.734;2024-02-04T04:56:11;1.37;;;1.07;;
9520;SDS011;4798;41.574;23.734;2024-02-04T04:58:41;1.23;;;1.23;;
9520;SDS011;4798;41.574;23.734;2024-02-04T05:01:10;1.83;;;0.77;;
9520;SDS011;4798;41.574;23.734;2024-02-04T05:03:39;1.27;;;1.17;;
9520;SDS011;4798;41.574;23.734;2024-02-04T05:06:08;11.63;;;1.20;;
9520;SDS011;4798;41.574;23.734;2024-02-04T05:08:37;6.93;;;1.80;;
9520;SDS011;4798;41.574;23.734;2024-02-04T05:11:05;0.90;;;0.80;;
9520;SDS011;4798;41.574;23.734;2024-02-04T05:13:34;4.03;;;2.43;;
9520;SDS011;4798;41.574;23.734;2024-02-04T05:16:04;2.53;;;1.80;;
9520;SDS011;4798;41.574;23.734;2024-02-04T05:18:33;5.00;;;3.90;;
9520;SDS011;4798;41.574;23.734;2024-02-04T05:21:02;3.17;;;2.23;;
9520;SDS011;4798;41.574;23.734;2024-02-04T05:23:31;3.70;;;2.67;;
9520;SDS011;4798;41.574;23.734;2024-02-04T05:26:02;6.60;;;1.57;;
9520;SDS011;4798;41.574;23.734;2024-02-04T05:28:31;1.80;;;1.70;;
9520;SDS011;4798;41.574;23.734;2024-02-04T05:31:01;2.67;;;2.00;;
9520;SDS011;4798;41.574;23.734;2024-02-04T05:33:31;3.70;;;2.30;;
9520;SDS011;4798;41.574;23.734;2024-02-04T05:36:00;3.43;;;3.13;;
9520;SDS011;4798;41.574;23.734;2024-02-04T05:38:29;5.60;;;2.20;;
9520;SDS011;4798;41.574;23.734;2024-02-04T05:40:58;1.37;;;1.30;;
9520;SDS011;4798;41.574;23.734;2024-02-04T05:43:27;2.20;;;2.10;;
9520;SDS011;4798;41.574;23.734;2024-02-04T05:45:55;0.90;;;0.90;;
9520;SDS011;4798;41.574;23.734;2024-02-04T05:48:24;2.80;;;1.70;;
9520;SDS011;4798;41.574;23.734;2024-02-04T05:50:54;3.80;;;1.13;;
9520;SDS011;4798;41.574;23.734;2024-02-04T05:53:23;2.57;;;2.40;;
9520;SDS011;4798;41.574;23.734;2024-02-04T05:55:51;1.83;;;1.37;;
9520;SDS011;4798;41.574;23.734;2024-02-04T05:58:20;3.33;;;3.07;;
9520;SDS011;4798;41.574;23.734;2024-02-04T06:00:49;3.30;;;1.90;;
9520;SDS011;4798;41.574;23.734;2024-02-04T06:03:17;6.00;;;1.43;;
9520;SDS011;4798;41.574;23.734;2024-02-04T06:05:46;4.70;;;0.80;;
9520;SDS011;4798;41.574;23.734;2024-02-04T06:08:16;1.50;;;1.07;;
9520;SDS011;4798;41.574;23.734;2024-02-04T06:10:45;1.37;;;1.27;;
9520;SDS011;4798;41.574;23.734;2024-02-04T06:13:13;4.30;;;2.77;;
9520;SDS011;4798;41.574;23.734;2024-02-04T06:15:43;1.20;;;1.10;;
9520;SDS011;4798;41.574;23.734;2024-02-04T06:18:11;2.87;;;1.50;;
9520;SDS011;4798;41.574;23.734;2024-02-04T06:20:40;2.13;;;2.03;;
9520;SDS011;4798;41.574;23.734;2024-02-04T06:23:08;2.00;;;1.80;;
9520;SDS011;4798;41.574;23.734;2024-02-04T06:25:38;7.13;;;2.67;;
9520;SDS011;4798;41.574;23.734;2024-02-04T06:28:07;2.33;;;2.23;;
9520;SDS011;4798;41.574;23.734;2024-02-04T06:30:37;2.90;;;2.10;;
9520;SDS011;4798;41.574;23.734;2024-02-04T06:33:06;2.93;;;2.73;;
9520;SDS011;4798;41.574;23.734;2024-02-04T06:35:35;15.23;;;3.20;;
9520;SDS011;4798;41.574;23.734;2024-02-04T06:38:03;3.97;;;3.67;;
9520;SDS011;4798;41.574;23.734;2024-02-04T06:40:33;3.73;;;2.53;;
9520;SDS011;4798;41.574;23.734;2024-02-04T06:43:03;4.00;;;2.47;;
9520;SDS011;4798;41.574;23.734;2024-02-04T06:45:32;5.60;;;5.10;;
9520;SDS011;4798;41.574;23.734;2024-02-04T06:48:01;8.60;;;3.40;;
9520;SDS011;4798;41.574;23.734;2024-02-04T06:50:30;6.07;;;3.73;;
9520;SDS011;4798;41.574;23.734;2024-02-04T06:52:58;4.40;;;3.17;;
9520;SDS011;4798;41.574;23.734;2024-02-04T06:55:27;3.10;;;2.80;;
9520;SDS011;4798;41.574;23.734;2024-02-04T06:57:56;3.10;;;2.90;;
9520;SDS011;4798;41.574;23.734;2024-02-04T07:00:26;4.40;;;2.67;;
9520;SDS011;4798;41.574;23.734;2024-02-04T07:02:55;4.07;;;3.73;;
9520;SDS011;4798;41.574;23.734;2024-02-04T07:05:23;5.70;;;5.17;;
9520;SDS011;4798;41.574;23.734;2024-02-04T07:07:52;7.20;;;5.10;;
9520;SDS011;4798;41.574;23.734;2024-02-04T07:10:21;7.67;;;6.63;;
9520;SDS011;4798;41.574;23.734;2024-02-04T07:12:49;12.30;;;5.03;;
9520;SDS011;4798;41.574;23.734;2024-02-04T07:15:18;11.00;;;4.73;;
9520;SDS011;4798;41.574;23.734;2024-02-04T07:17:48;2.43;;;2.23;;
9520;SDS011;4798;41.574;23.734;2024-02-04T07:20:17;2.40;;;2.30;;
9520;SDS011;4798;41.574;23.734;2024-02-04T07:22:46;6.23;;;2.40;;
9520;SDS011;4798;41.574;23.734;2024-02-04T07:25:15;6.60;;;2.03;;
9520;SDS011;4798;41.574;23.734;2024-02-04T07:27:44;5.10;;;3.10;;
9520;SDS011;4798;41.574;23.734;2024-02-04T07:30:12;9.43;;;2.23;;
9520;SDS011;4798;41.574;23.734;2024-02-04T07:32:41;2.97;;;2.13;;
9520;SDS011;4798;41.574;23.734;2024-02-04T07:35:12;3.53;;;2.70;;
9520;SDS011;4798;41.574;23.734;2024-02-04T07:37:40;6.40;;;4.70;;
9520;SDS011;4798;41.574;23.734;2024-02-04T07:40:09;4.53;;;4.23;;
9520;SDS011;4798;41.574;23.734;2024-02-04T07:42:39;3.43;;;3.10;;
9520;SDS011;4798;41.574;23.734;2024-02-04T07:45:08;5.43;;;2.63;;
9520;SDS011;4798;41.574;23.734;2024-02-04T07:47:37;6.20;;;2.43;;
9520;SDS011;4798;41.574;23.734;2024-02-04T07:50:06;4.20;;;2.83;;
9520;SDS011;4798;41.574;23.734;2024-02-04T07:52:37;7.23;;;4.60;;
9520;SDS011;4798;41.574;23.734;2024-02-04T07:55:10;4.37;;;2.87;;
9520;SDS011;4798;41.574;23.734;2024-02-04T07:57:39;14.37;;;4.17;;
9520;SDS011;4798;41.574;23.734;2024-02-04T08:00:09;5.13;;;4.90;;
9520;SDS011;4798;41.574;23.734;2024-02-04T08:02:38;5.17;;;4.13;;
9520;SDS011;4798;41.574;23.734;2024-02-04T08:05:07;4.23;;;3.97;;
9520;SDS011;4798;41.574;23.734;2024-02-04T08:07:37;11.67;;;2.93;;
9520;SDS011;4798;41.574;23.734;2024-02-04T08:10:06;4.00;;;3.37;;
9520;SDS011;4798;41.574;23.734;2024-02-04T08:12:35;5.47;;;3.40;;
9520;SDS011;4798;41.574;23.734;2024-02-04T08:15:22;5.90;;;5.60;;
9520;SDS011;4798;41.574;23.734;2024-02-04T08:17:51;4.10;;;3.83;;
9520;SDS011;4798;41.574;23.734;2024-02-04T08:20:20;7.33;;;3.97;;
9520;SDS011;4798;41.574;23.734;2024-02-04T08:22:51;6.93;;;3.83;;
9520;SDS011;4798;41.574;23.734;2024-02-04T08:25:20;3.97;;;3.17;;
9520;SDS011;4798;41.574;23.734;2024-02-04T08:27:48;3.07;;;2.80;;
9520;SDS011;4798;41.574;23.734;2024-02-04T08:30:17;10.20;;;2.80;;
9520;SDS011;4798;41.574;23.734;2024-02-04T08:32:46;4.17;;;2.67;;
9520;SDS011;4798;41.574;23.734;2024-02-04T08:35:14;6.90;;;5.10;;
9520;SDS011;4798;41.574;23.734;2024-02-04T08:37:43;1.93;;;1.83;;
9520;SDS011;4798;41.574;23.734;2024-02-04T08:40:13;1.70;;;1.53;;
9520;SDS011;4798;41.574;23.734;2024-02-04T08:42:42;1.67;;;1.57;;
9520;SDS011;4798;41.574;23.734;2024-02-04T08:45:11;3.03;;;2.83;;
9520;SDS011;4798;41.574;23.734;2024-02-04T08:47:40;7.83;;;5.60;;
9520;SDS011;4798;41.574;23.734;2024-02-04T08:50:09;2.53;;;2.33;;
9520;SDS011;4798;41.574;23.734;2024-02-04T08:52:38;1.80;;;1.70;;
9520;SDS011;4798;41.574;23.734;2024-02-04T08:55:07;0.80;;;0.80;;
9520;SDS011;4798;41.574;23.734;2024-02-04T08:57:38;2.10;;;1.47;;
9520;SDS011;4798;41.574;23.734;2024-02-04T09:00:07;2.33;;;1.27;;
9520;SDS011;4798;41.574;23.734;2024-02-04T09:02:38;2.20;;;1.90;;
9520;SDS011;4798;41.574;23.734;2024-02-04T09:05:07;3.43;;;3.00;;
9520;SDS011;4798;41.574;23.734;2024-02-04T09:07:36;3.60;;;3.30;;
9520;SDS011;4798;41.574;23.734;2024-02-04T09:10:06;3.67;;;3.47;;
9520;SDS011;4798;41.574;23.734;2024-02-04T09:12:35;3.70;;;2.77;;
9520;SDS011;4798;41.574;23.734;2024-02-04T09:15:06;4.43;;;4.20;;
9520;SDS011;4798;41.574;23.734;2024-02-04T09:17:35;3.80;;;2.50;;
9520;SDS011;4798;41.574;23.734;2024-02-04T09:20:04;5.60;;;3.57;;
9520;SDS011;4798;41.574;23.734;2024-02-04T09:22:34;4.93;;;3.10;;
9520;SDS011;4798;41.574;23.734;2024-02-04T09:25:03;3.60;;;2.13;;
9520;SDS011;4798;41.574;23.734;2024-02-04T09:27:33;6.67;;;2.33;;
9520;SDS011;4798;41.574;23.734;2024-02-04T09:30:02;1.93;;;1.30;;
9520;SDS011;4798;41.574;23.734;2024-02-04T09:32:34;3.70;;;2.27;;
9520;SDS011;4798;41.574;23.734;2024-02-04T09:35:03;1.50;;;1.40;;
9520;SDS011;4798;41.574;23.734;2024-02-04T09:37:32;0.70;;;0.63;;
9520;SDS011;4798;41.574;23.734;2024-02-04T09:40:01;2.10;;;2.00;;
9520;SDS011;4798;41.574;23.734;2024-02-04T09:42:31;1.93;;;1.77;;
9520;SDS011;4798;41.574;23.734;2024-02-04T09:45:00;3.33;;;2.33;;
9520;SDS011;4798;41.574;23.734;2024-02-04T09:47:29;2.10;;;1.93;;
9520;SDS011;4798;41.574;23.734;2024-02-04T09:50:01;3.70;;;1.93;;
9520;SDS011;4798;41.574;23.734;2024-02-04T09:52:30;13.13;;;2.17;;
9520;SDS011;4798;41.574;23.734;2024-02-04T09:55:02;1.27;;;1.00;;
9520;SDS011;4798;41.574;23.734;2024-02-04T09:57:33;3.10;;;1.63;;
9520;SDS011;4798;41.574;23.734;2024-02-04T10:00:03;2.30;;;2.07;;
9520;SDS011;4798;41.574;23.734;2024-02-04T10:02:32;2.70;;;2.37;;
9520;SDS011;4798;41.574;23.734;2024-02-04T10:05:03;8.50;;;4.17;;
9520;SDS011;4798;41.574;23.734;2024-02-04T10:07:32;3.27;;;2.63;;
9520;SDS011;4798;41.574;23.734;2024-02-04T10:10:01;13.30;;;7.53;;
9520;SDS011;4798;41.574;23.734;2024-02-04T10:12:35;7.57;;;4.50;;
9520;SDS011;4798;41.574;23.734;2024-02-04T10:15:06;16.47;;;5.33;;
9520;SDS011;4798;41.574;23.734;2024-02-04T10:17:35;11.50;;;3.67;;
9520;SDS011;4798;41.574;23.734;2024-02-04T10:20:06;7.73;;;2.87;;
9520;SDS011;4798;41.574;23.734;2024-02-04T10:22:37;12.83;;;2.10;;
9520;SDS011;4798;41.574;23.734;2024-02-04T10:25:06;3.03;;;2.50;;
9520;SDS011;4798;41.574;23.734;2024-02-04T10:27:35;9.50;;;3.20;;
9520;SDS011;4798;41.574;23.734;2024-02-04T10:30:05;4.07;;;3.87;;
9520;SDS011;4798;41.574;23.734;2024-02-04T10:32:34;4.93;;;4.03;;
9520;SDS011;4798;41.574;23.734;2024-02-04T10:35:03;6.10;;;2.10;;
9520;SDS011;4798;41.574;23.734;2024-02-04T10:37:33;1.63;;;1.27;;
9520;SDS011;4798;41.574;23.734;2024-02-04T10:40:02;2.53;;;1.90;;
9520;SDS011;4798;41.574;23.734;2024-02-04T10:42:32;7.80;;;2.37;;
9520;SDS011;4798;41.574;23.734;2024-02-04T10:45:02;3.50;;;2.57;;
9520;SDS011;4798;41.574;23.734;2024-02-04T10:47:35;4.40;;;2.83;;
9520;SDS011;4798;41.574;23.734;2024-02-04T10:50:06;1.33;;;1.23;;
9520;SDS011;4798;41.574;23.734;2024-02-04T10:52:38;0.70;;;0.70;;
9520;SDS011;4798;41.574;23.734;2024-02-04T10:55:09;1.67;;;1.60;;
9520;SDS011;4798;41.574;23.734;2024-02-04T10:57:39;1.33;;;1.23;;
9520;SDS011;4798;41.574;23.734;2024-02-04T11:00:08;1.53;;;1.43;;
9520;SDS011;4798;41.574;23.734;2024-02-04T11:02:39;3.03;;;2.37;;
9520;SDS011;4798;41.574;23.734;2024-02-04T11:05:13;3.00;;;2.73;;
9520;SDS011;4798;41.574;23.734;2024-02-04T11:07:45;2.10;;;1.90;;
9520;SDS011;4798;41.574;23.734;2024-02-04T11:10:14;1.33;;;1.23;;
9520;SDS011;4798;41.574;23.734;2024-02-04T11:12:44;0.63;;;0.47;;
9520;SDS011;4798;41.574;23.734;2024-02-04T11:15:14;3.70;;;2.23;;
9520;SDS011;4798;41.574;23.734;2024-02-04T11:17:50;1.13;;;1.13;;
9520;SDS011;4798;41.574;23.734;2024-02-04T11:20:37;3.93;;;1.10;;
9520;SDS011;4798;41.574;23.734;2024-02-04T11:23:27;3.60;;;1.07;;
9520;SDS011;4798;41.574;23.734;2024-02-04T11:26:05;2.30;;;2.20;;
9520;SDS011;4798;41.574;23.734;2024-02-04T11:28:34;0.77;;;0.77;;
9520;SDS011;4798;41.574;23.734;2024-02-04T11:31:03;0.70;;;0.67;;
9520;SDS011;4798;41.574;23.734;2024-02-04T11:33:32;0.90;;;0.40;;
9520;SDS011;4798;41.574;23.734;2024-02-04T11:36:03;2.50;;;0.93;;
9520;SDS011;4798;41.574;23.734;2024-02-04T11:38:36;0.60;;;0.60;;
9520;SDS011;4798;41.574;23.734;2024-02-04T11:41:05;3.00;;;1.20;;
9520;SDS011;4798;41.574;23.734;2024-02-04T11:43:35;1.20;;;0.50;;
9520;SDS011;4798;41.574;23.734;2024-02-04T11:46:06;2.57;;;1.53;;
9520;SDS011;4798;41.574;23.734;2024-02-04T11:48:35;1.07;;;0.73;;
9520;SDS011;4798;41.574;23.734;2024-02-04T11:51:05;1.97;;;1.20;;
9520;SDS011;4798;41.574;23.734;2024-02-04T11:53:37;2.23;;;2.10;;
9520;SDS011;4798;41.574;23.734;2024-02-04T11:56:06;1.00;;;1.00;;
9520;SDS011;4798;41.574;23.734;2024-02-04T11:58:35;0.93;;;0.60;;
9520;SDS011;4798;41.574;23.734;2024-02-04T12:01:09;2.00;;;1.53;;
9520;SDS011;4798;41.574;23.734;2024-02-04T12:03:38;2.50;;;2.30;;
9520;SDS011;4798;41.574;23.734;2024-02-04T12:06:07;4.40;;;2.90;;
9520;SDS011;4798;41.574;23.734;2024-02-04T12:08:38;1.93;;;1.80;;
9520;SDS011;4798;41.574;23.734;2024-02-04T12:11:07;2.00;;;1.43;;
9520;SDS011;4798;41.574;23.734;2024-02-04T12:13:36;4.50;;;1.80;;
9520;SDS011;4798;41.574;23.734;2024-02-04T12:16:08;3.00;;;1.37;;
9520;SDS011;4798;41.574;23.734;2024-02-04T12:18:47;2.57;;;1.93;;
9520;SDS011;4798;41.574;23.734;2024-02-04T12:21:16;2.50;;;1.53;;
9520;SDS011;4798;41.574;23.734;2024-02-04T12:23:46;0.67;;;0.67;;
9520;SDS011;4798;41.574;23.734;2024-02-04T12:26:15;1.13;;;1.07;;
9520;SDS011;4798;41.574;23.734;2024-02-04T12:28:44;3.33;;;1.10;;
9520;SDS011;4798;41.574;23.734;2024-02-04T12:31:16;0.93;;;0.93;;
9520;SDS011;4798;41.574;23.734;2024-02-04T12:33:52;1.30;;;1.20;;
9520;SDS011;4798;41.574;23.734;2024-02-04T12:36:25;6.63;;;1.97;;
9520;SDS011;4798;41.574;23.734;2024-02-04T12:38:56;1.73;;;1.33;;
9520;SDS011;4798;41.574;23.734;2024-02-04T12:41:27;2.83;;;1.87;;
9520;SDS011;4798;41.574;23.734;2024-02-04T12:43:57;16.93;;;1.43;;
9520;SDS011;4798;41.574;23.734;2024-02-04T12:46:27;1.47;;;1.37;;
9520;SDS011;4798;41.574;23.734;2024-02-04T12:48:57;4.47;;;1.50;;
9520;SDS011;4798;41.574;23.734;2024-02-04T12:51:32;1.43;;;1.23;;
9520;SDS011;4798;41.574;23.734;2024-02-04T12:54:03;1.20;;;1.10;;
9520;SDS011;4798;41.574;23.734;2024-02-04T12:56:42;1.03;;;0.70;;
9520;SDS011;4798;41.574;23.734;2024-02-04T12:59:26;2.20;;;1.17;;
9520;SDS011;4798;41.574;23.734;2024-02-04T13:01:56;1.30;;;1.07;;
9520;SDS011;4798;41.574;23.734;2024-02-04T13:04:26;2.00;;;1.70;;
9520;SDS011;4798;41.574;23.734;2024-02-04T13:06:55;1.13;;;1.10;;
9520;SDS011;4798;41.574;23.734;2024-02-04T13:09:25;1.70;;;1.60;;
9520;SDS011;4798;41.574;23.734;2024-02-04T13:12:02;1.40;;;1.30;;
9520;SDS011;4798;41.574;23.734;2024-02-04T13:14:31;1.70;;;1.37;;
9520;SDS011;4798;41.574;23.734;2024-02-04T13:17:00;2.60;;;2.40;;
9520;SDS011;4798;41.574;23.734;2024-02-04T13:19:31;2.60;;;1.57;;
9520;SDS011;4798;41.574;23.734;2024-02-04T13:22:02;2.07;;;1.97;;
9520;SDS011;4798;41.574;23.734;2024-02-04T13:24:33;2.80;;;1.70;;
9520;SDS011;4798;41.574;23.734;2024-02-04T13:27:02;2.53;;;2.33;;
9520;SDS011;4798;41.574;23.734;2024-02-04T13:29:33;1.90;;;1.03;;
9520;SDS011;4798;41.574;23.734;2024-02-04T13:32:02;3.30;;;3.10;;
9520;SDS011;4798;41.574;23.734;2024-02-04T13:34:32;4.93;;;2.67;;
9520;SDS011;4798;41.574;23.734;2024-02-04T13:37:00;8.40;;;4.20;;
9520;SDS011;4798;41.574;23.734;2024-02-04T13:39:29;3.60;;;1.90;;
9520;SDS011;4798;41.574;23.734;2024-02-04T13:41:59;3.50;;;3.20;;
9520;SDS011;4798;41.574;23.734;2024-02-04T13:44:28;7.53;;;4.40;;
9520;SDS011;4798;41.574;23.734;2024-02-04T13:46:56;6.13;;;4.53;;
9520;SDS011;4798;41.574;23.734;2024-02-04T13:49:25;9.53;;;2.27;;
9520;SDS011;4798;41.574;23.734;2024-02-04T13:51:54;7.50;;;2.60;;
9520;SDS011;4798;41.574;23.734;2024-02-04T13:54:23;3.20;;;2.50;;
9520;SDS011;4798;41.574;23.734;2024-02-04T13:56:51;3.93;;;3.57;;
9520;SDS011;4798;41.574;23.734;2024-02-04T13:59:21;0.60;;;0.60;;
9520;SDS011;4798;41.574;23.734;2024-02-04T14:01:50;0.40;;;0.30;;
9520;SDS011;4798;41.574;23.734;2024-02-04T14:04:22;0.30;;;0.20;;
9520;SDS011;4798;41.574;23.734;2024-02-04T14:06:50;0.30;;;0.20;;
9520;SDS011;4798;41.574;23.734;2024-02-04T14:09:19;0.40;;;0.30;;
9520;SDS011;4798;41.574;23.734;2024-02-04T14:11:47;0.30;;;0.30;;
9520;SDS011;4798;41.574;23.734;2024-02-04T14:14:16;0.30;;;0.30;;
9520;SDS011;4798;41.574;23.734;2024-02-04T14:16:46;1.43;;;1.13;;
9520;SDS011;4798;41.574;23.734;2024-02-04T14:19:15;0.40;;;0.40;;
9520;SDS011;4798;41.574;23.734;2024-02-04T14:21:44;0.40;;;0.30;;
9520;SDS011;4798;41.574;23.734;2024-02-04T14:24:13;0.50;;;0.50;;
9520;SDS011;4798;41.574;23.734;2024-02-04T14:26:42;0.40;;;0.30;;
9520;SDS011;4798;41.574;23.734;2024-02-04T14:29:11;0.40;;;0.30;;
9520;SDS011;4798;41.574;23.734;2024-02-04T14:31:39;3.13;;;0.50;;
9520;SDS011;4798;41.574;23.734;2024-02-04T14:34:09;1.13;;;1.03;;
9520;SDS011;4798;41.574;23.734;2024-02-04T14:36:38;0.43;;;0.27;;
9520;SDS011;4798;41.574;23.734;2024-02-04T14:39:07;0.50;;;0.33;;
9520;SDS011;4798;41.574;23.734;2024-02-04T14:41:36;0.60;;;0.50;;
9520;SDS011;4798;41.574;23.734;2024-02-04T14:44:04;0.43;;;0.30;;
9520;SDS011;4798;41.574;23.734;2024-02-04T14:46:35;0.53;;;0.40;;
9520;SDS011;4798;41.574;23.734;2024-02-04T14:49:05;0.53;;;0.50;;
9520;SDS011;4798;41.574;23.734;2024-02-04T14:51:39;0.70;;;0.50;;
9520;SDS011;4798;41.574;23.734;2024-02-04T14:54:08;2.00;;;0.67;;
9520;SDS011;4798;41.574;23.734;2024-02-04T14:56:37;0.50;;;0.37;;
9520;SDS011;4798;41.574;23.734;2024-02-04T14:59:07;0.60;;;0.40;;
9520;SDS011;4798;41.574;23.734;2024-02-04T15:01:48;3.33;;;0.60;;
9520;SDS011;4798;41.574;23.734;2024-02-04T15:04:17;0.50;;;0.40;;
9520;SDS011;4798;41.574;23.734;2024-02-04T15:06:48;0.80;;;0.40;;
9520;SDS011;4798;41.574;23.734;2024-02-04T15:09:17;4.30;;;0.60;;
9520;SDS011;4798;41.574;23.734;2024-02-04T15:11:47;0.40;;;0.20;;
9520;SDS011;4798;41.574;23.734;2024-02-04T15:14:16;0.40;;;0.30;;
9520;SDS011;4798;41.574;23.734;2024-02-04T15:16:45;0.40;;;0.30;;